sensor_id;sensor_type;location;lat;lon;timestamp;pressure;altitude;pressure_sealevel;temperature;humidity
68889;BME280;55930;47.412;8.790;2023-11-21T00:02:42;94160.09;;;7.10;100.00
68889;BME280;55930;47.412;8.790;2023-11-21T00:06:02;94147.69;;;6.92;100.00
68889;BME280;55930;47.412;8.790;2023-11-21T00:09:28;94146.53;;;6.93;100.00
68889;BME280;55930;47.412;8.790;2023-11-21T00:12:49;94140.94;;;7.00;100.00
68889;BME280;55930;47.412;8.790;2023-11-21T00:16:09;94145.34;;;6.94;100.00
68889;BME280;55930;47.412;8.790;2023-11-21T00:19:30;94144.44;;;6.97;100.00
68889;BME280;55930;47.412;8.790;2023-11-21T00:22:53;94134.22;;;6.90;100.00
68889;BME280;55930;47.412;8.790;2023-11-21T00:26:16;94140.25;;;6.81;100.00
68889;BME280;55930;47.412;8.790;2023-11-21T00:29:36;94143.28;;;6.98;100.00
68889;BME280;55930;47.412;8.790;2023-11-21T00:32:57;94134.19;;;6.99;100.00
68889;BME280;55930;47.412;8.790;2023-11-21T00:36:17;94128.31;;;7.04;100.00
68889;BME280;55930;47.412;8.790;2023-11-21T00:39:38;94124.53;;;6.96;100.00
68889;BME280;55930;47.412;8.790;2023-11-21T00:42:58;94115.63;;;6.94;100.00
68889;BME280;55930;47.412;8.790;2023-11-21T00:46:19;94123.97;;;6.92;100.00
68889;BME280;55930;47.412;8.790;2023-11-21T00:49:40;94123.97;;;6.92;100.00
68889;BME280;55930;47.412;8.790;2023-11-21T00:53:00;94124.25;;;6.94;100.00
68889;BME280;55930;47.412;8.790;2023-11-21T00:56:22;94113.53;;;6.98;100.00
68889;BME280;55930;47.412;8.790;2023-11-21T00:59:42;94120.72;;;6.97;100.00
68889;BME280;55930;47.412;8.790;2023-11-21T01:03:03;94121.91;;;6.96;100.00
68889;BME280;55930;47.412;8.790;2023-11-21T01:14:57;94134.09;;;6.84;100.00
68889;BME280;55930;47.412;8.790;2023-11-21T01:18:20;94124.97;;;6.95;100.00
68889;BME280;55930;47.412;8.790;2023-11-21T01:21:40;94126.59;;;6.92;100.00
68889;BME280;55930;47.412;8.790;2023-11-21T01:25:01;94124.13;;;6.88;100.00
68889;BME280;55930;47.412;8.790;2023-11-21T01:28:24;94126.03;;;6.79;100.00
68889;BME280;55930;47.412;8.790;2023-11-21T01:31:44;94140.00;;;6.70;100.00
68889;BME280;55930;47.412;8.790;2023-11-21T01:35:05;94117.56;;;6.75;100.00
68889;BME280;55930;47.412;8.790;2023-11-21T01:38:30;94108.63;;;6.81;100.00
68889;BME280;55930;47.412;8.790;2023-11-21T01:41:52;94115.22;;;6.77;100.00
68889;BME280;55930;47.412;8.790;2023-11-21T01:45:12;94123.16;;;6.68;100.00
68889;BME280;55930;47.412;8.790;2023-11-21T01:48:33;94124.84;;;6.38;100.00
68889;BME280;55930;47.412;8.790;2023-11-21T01:51:54;94135.22;;;6.41;100.00
68889;BME280;55930;47.412;8.790;2023-11-21T01:55:18;94137.84;;;6.41;100.00
68889;BME280;55930;47.412;8.790;2023-11-21T01:58:39;94133.19;;;6.36;100.00
68889;BME280;55930;47.412;8.790;2023-11-21T02:02:00;94128.78;;;6.33;100.00
68889;BME280;55930;47.412;8.790;2023-11-21T02:05:21;94134.19;;;6.39;100.00
68889;BME280;55930;47.412;8.790;2023-11-21T02:08:41;94135.81;;;6.36;100.00
68889;BME280;55930;47.412;8.790;2023-11-21T02:12:04;94135.66;;;6.40;100.00
68889;BME280;55930;47.412;8.790;2023-11-21T02:15:25;94139.91;;;6.37;100.00
68889;BME280;55930;47.412;8.790;2023-11-21T02:18:48;94129.38;;;6.37;100.00
68889;BME280;55930;47.412;8.790;2023-11-21T02:22:10;94125.56;;;6.38;100.00
68889;BME280;55930;47.412;8.790;2023-11-21T02:25:33;94121.16;;;6.44;100.00
68889;BME280;55930;47.412;8.790;2023-11-21T02:28:53;94114.25;;;6.47;100.00
68889;BME280;55930;47.412;8.790;2023-11-21T02:32:13;94109.72;;;6.47;100.00
68889;BME280;55930;47.412;8.790;2023-11-21T02:35:34;94112.09;;;6.45;100.00
68889;BME280;55930;47.412;8.790;2023-11-21T02:38:55;94101.25;;;6.43;100.00
68889;BME280;55930;47.412;8.790;2023-11-21T02:42:15;94119.81;;;6.49;100.00
68889;BME280;55930;47.412;8.790;2023-11-21T02:45:36;94112.25;;;6.33;100.00
68889;BME280;55930;47.412;8.790;2023-11-21T02:48:56;94107.25;;;6.35;100.00
68889;BME280;55930;47.412;8.790;2023-11-21T02:52:18;94109.31;;;6.31;100.00
68889;BME280;55930;47.412;8.790;2023-11-21T02:55:39;94116.34;;;6.34;100.00
68889;BME280;55930;47.412;8.790;2023-11-21T02:59:00;94130.38;;;6.40;100.00
68889;BME280;55930;47.412;8.790;2023-11-21T03:02:20;94138.28;;;6.31;100.00
68889;BME280;55930;47.412;8.790;2023-11-21T03:05:42;94129.38;;;6.28;100.00
68889;BME280;55930;47.412;8.790;2023-11-21T03:09:03;94134.66;;;6.19;100.00
68889;BME280;55930;47.412;8.790;2023-11-21T03:12:23;94141.38;;;6.20;100.00
68889;BME280;55930;47.412;8.790;2023-11-21T03:15:44;94136.97;;;6.17;100.00
68889;BME280;55930;47.412;8.790;2023-11-21T03:19:04;94145.47;;;6.12;100.00
68889;BME280;55930;47.412;8.790;2023-11-21T03:22:25;94140.06;;;5.97;100.00
68889;BME280;55930;47.412;8.790;2023-11-21T03:25:48;94136.78;;;5.84;100.00
68889;BME280;55930;47.412;8.790;2023-11-21T03:29:09;94142.69;;;5.97;100.00
68889;BME280;55930;47.412;8.790;2023-11-21T03:32:29;94145.72;;;5.87;100.00
68889;BME280;55930;47.412;8.790;2023-11-21T03:35:53;94137.53;;;5.66;100.00
68889;BME280;55930;47.412;8.790;2023-11-21T03:39:13;94126.72;;;5.83;100.00
68889;BME280;55930;47.412;8.790;2023-11-21T03:42:34;94134.47;;;5.86;100.00
68889;BME280;55930;47.412;8.790;2023-11-21T03:45:54;94144.66;;;5.75;100.00
68889;BME280;55930;47.412;8.790;2023-11-21T03:49:14;94143.94;;;5.84;100.00
68889;BME280;55930;47.412;8.790;2023-11-21T03:52:35;94148.78;;;5.76;100.00
68889;BME280;55930;47.412;8.790;2023-11-21T03:55:58;94143.34;;;5.61;100.00
68889;BME280;55930;47.412;8.790;2023-11-21T03:59:18;94152.69;;;5.62;100.00
68889;BME280;55930;47.412;8.790;2023-11-21T04:02:39;94149.63;;;5.55;100.00
68889;BME280;55930;47.412;8.790;2023-11-21T04:06:00;94156.78;;;5.54;100.00
68889;BME280;55930;47.412;8.790;2023-11-21T04:09:21;94156.19;;;5.59;100.00
68889;BME280;55930;47.412;8.790;2023-11-21T04:12:45;94168.81;;;5.73;100.00
68889;BME280;55930;47.412;8.790;2023-11-21T04:16:07;94155.91;;;5.57;100.00
68889;BME280;55930;47.412;8.790;2023-11-21T04:19:30;94160.28;;;5.60;100.00
68889;BME280;55930;47.412;8.790;2023-11-21T04:22:51;94160.75;;;5.68;100.00
68889;BME280;55930;47.412;8.790;2023-11-21T04:26:11;94150.94;;;5.59;100.00
68889;BME280;55930;47.412;8.790;2023-11-21T04:29:32;94157.38;;;5.58;100.00
68889;BME280;55930;47.412;8.790;2023-11-21T04:32:52;94152.56;;;5.66;100.00
68889;BME280;55930;47.412;8.790;2023-11-21T04:36:13;94154.28;;;5.60;100.00
68889;BME280;55930;47.412;8.790;2023-11-21T04:39:33;94158.25;;;5.55;100.00
68889;BME280;55930;47.412;8.790;2023-11-21T04:42:53;94164.69;;;5.63;100.00
68889;BME280;55930;47.412;8.790;2023-11-21T04:46:14;94162.34;;;5.56;100.00
68889;BME280;55930;47.412;8.790;2023-11-21T04:49:34;94163.66;;;5.61;100.00
68889;BME280;55930;47.412;8.790;2023-11-21T04:52:55;94168.50;;;5.71;100.00
68889;BME280;55930;47.412;8.790;2023-11-21T04:56:15;94170.22;;;5.56;100.00
68889;BME280;55930;47.412;8.790;2023-11-21T04:59:38;94162.91;;;5.60;100.00
68889;BME280;55930;47.412;8.790;2023-11-21T05:02:59;94159.41;;;5.54;100.00
68889;BME280;55930;47.412;8.790;2023-11-21T05:06:21;94166.56;;;5.54;100.00
68889;BME280;55930;47.412;8.790;2023-11-21T05:09:42;94159.13;;;5.61;100.00
68889;BME280;55930;47.412;8.790;2023-11-21T05:13:04;94165.28;;;5.58;100.00
68889;BME280;55930;47.412;8.790;2023-11-21T05:16:26;94169.81;;;5.58;100.00
68889;BME280;55930;47.412;8.790;2023-11-21T05:19:47;94174.91;;;5.61;100.00
68889;BME280;55930;47.412;8.790;2023-11-21T05:23:08;94169.53;;;5.65;100.00
68889;BME280;55930;47.412;8.790;2023-11-21T05:26:29;94170.50;;;5.49;100.00
68889;BME280;55930;47.412;8.790;2023-11-21T05:29:49;94175.34;;;5.60;100.00
68889;BME280;55930;47.412;8.790;2023-11-21T05:33:12;94175.34;;;5.60;100.00
68889;BME280;55930;47.412;8.790;2023-11-21T05:36:32;94182.22;;;5.57;100.00
68889;BME280;55930;47.412;8.790;2023-11-21T05:39:54;94182.22;;;5.57;100.00
68889;BME280;55930;47.412;8.790;2023-11-21T05:43:17;94191.00;;;5.63;100.00
68889;BME280;55930;47.412;8.790;2023-11-21T05:46:40;94192.75;;;5.57;100.00
68889;BME280;55930;47.412;8.790;2023-11-21T05:50:04;94190.53;;;5.56;100.00
68889;BME280;55930;47.412;8.790;2023-11-21T05:53:25;94186.72;;;5.48;100.00
68889;BME280;55930;47.412;8.790;2023-11-21T05:56:48;94190.84;;;5.58;100.00
68889;BME280;55930;47.412;8.790;2023-11-21T06:00:14;94194.22;;;5.58;100.00
68889;BME280;55930;47.412;8.790;2023-11-21T06:03:35;94199.94;;;5.66;100.00
68889;BME280;55930;47.412;8.790;2023-11-21T06:06:55;94198.13;;;5.54;100.00
68889;BME280;55930;47.412;8.790;2023-11-21T06:10:16;94191.13;;;5.51;100.00
68889;BME280;55930;47.412;8.790;2023-11-21T06:13:37;94196.84;;;5.58;100.00
68889;BME280;55930;47.412;8.790;2023-11-21T06:16:58;94204.44;;;5.56;100.00
68889;BME280;55930;47.412;8.790;2023-11-21T06:20:19;94210.84;;;5.55;100.00
68889;BME280;55930;47.412;8.790;2023-11-21T06:23:40;94213.34;;;5.59;100.00
68889;BME280;55930;47.412;8.790;2023-11-21T06:27:03;94213.78;;;5.57;100.00
68889;BME280;55930;47.412;8.790;2023-11-21T06:30:24;94214.97;;;5.56;100.00
68889;BME280;55930;47.412;8.790;2023-11-21T06:33:45;94207.50;;;5.55;100.00
68889;BME280;55930;47.412;8.790;2023-11-21T06:37:08;94222.69;;;5.60;100.00
68889;BME280;55930;47.412;8.790;2023-11-21T06:40:28;94221.97;;;5.59;100.00
68889;BME280;55930;47.412;8.790;2023-11-21T06:43:48;94217.59;;;5.56;100.00
68889;BME280;55930;47.412;8.790;2023-11-21T06:47:09;94222.13;;;5.56;100.00
68889;BME280;55930;47.412;8.790;2023-11-21T06:50:32;94234.09;;;5.57;100.00
68889;BME280;55930;47.412;8.790;2023-11-21T06:53:53;94225.75;;;5.49;100.00
68889;BME280;55930;47.412;8.790;2023-11-21T06:57:13;94229.50;;;5.39;100.00
68889;BME280;55930;47.412;8.790;2023-11-21T07:00:36;94232.28;;;5.45;100.00
68889;BME280;55930;47.412;8.790;2023-11-21T07:03:59;94243.25;;;5.43;100.00
68889;BME280;55930;47.412;8.790;2023-11-21T07:07:22;94236.97;;;5.41;100.00
68889;BME280;55930;47.412;8.790;2023-11-21T07:10:42;94243.38;;;5.39;100.00
68889;BME280;55930;47.412;8.790;2023-11-21T07:14:03;94251.75;;;5.47;100.00
68889;BME280;55930;47.412;8.790;2023-11-21T07:17:27;94249.69;;;5.42;100.00
68889;BME280;55930;47.412;8.790;2023-11-21T07:20:51;94261.06;;;5.39;100.00
68889;BME280;55930;47.412;8.790;2023-11-21T07:24:12;94253.81;;;5.52;100.00
68889;BME280;55930;47.412;8.790;2023-11-21T07:27:32;94248.22;;;5.41;100.00
68889;BME280;55930;47.412;8.790;2023-11-21T07:30:57;94252.53;;;5.26;100.00
68889;BME280;55930;47.412;8.790;2023-11-21T07:34:17;94251.72;;;5.38;100.00
68889;BME280;55930;47.412;8.790;2023-11-21T07:37:38;94254.22;;;5.42;100.00
68889;BME280;55930;47.412;8.790;2023-11-21T07:40:58;94264.31;;;5.52;100.00
68889;BME280;55930;47.412;8.790;2023-11-21T07:44:21;94261.66;;;5.43;100.00
68889;BME280;55930;47.412;8.790;2023-11-21T07:47:44;94260.97;;;5.52;100.00
68889;BME280;55930;47.412;8.790;2023-11-21T07:51:04;94257.09;;;5.65;100.00
68889;BME280;55930;47.412;8.790;2023-11-21T07:54:25;94258.31;;;5.43;100.00
68889;BME280;55930;47.412;8.790;2023-11-21T07:57:45;94267.53;;;5.47;100.00
68889;BME280;55930;47.412;8.790;2023-11-21T08:01:05;94260.28;;;5.60;100.00
68889;BME280;55930;47.412;8.790;2023-11-21T08:04:26;94262.16;;;5.60;100.00
68889;BME280;55930;47.412;8.790;2023-11-21T08:07:48;94264.41;;;5.70;100.00
68889;BME280;55930;47.412;8.790;2023-11-21T08:11:08;94250.78;;;5.63;100.00
68889;BME280;55930;47.412;8.790;2023-11-21T08:14:30;94256.81;;;5.72;100.00
68889;BME280;55930;47.412;8.790;2023-11-21T08:17:51;94255.00;;;5.60;100.00
68889;BME280;55930;47.412;8.790;2023-11-21T08:21:14;94258.13;;;5.77;100.00
68889;BME280;55930;47.412;8.790;2023-11-21T08:24:35;94262.31;;;5.56;100.00
68889;BME280;55930;47.412;8.790;2023-11-21T08:27:55;94265.53;;;5.60;100.00
68889;BME280;55930;47.412;8.790;2023-11-21T08:31:15;94274.16;;;5.92;100.00
68889;BME280;55930;47.412;8.790;2023-11-21T08:34:36;94264.00;;;5.81;100.00
68889;BME280;55930;47.412;8.790;2023-11-21T08:38:00;94266.72;;;5.68;100.00
68889;BME280;55930;47.412;8.790;2023-11-21T08:41:25;94276.13;;;5.78;100.00
68889;BME280;55930;47.412;8.790;2023-11-21T08:44:48;94276.50;;;5.90;100.00
68889;BME280;55930;47.412;8.790;2023-11-21T08:48:08;94281.13;;;5.86;100.00
68889;BME280;55930;47.412;8.790;2023-11-21T08:51:29;94272.97;;;5.93;100.00
68889;BME280;55930;47.412;8.790;2023-11-21T08:54:49;94285.00;;;6.03;100.00
68889;BME280;55930;47.412;8.790;2023-11-21T08:58:18;94282.69;;;6.05;100.00
68889;BME280;55930;47.412;8.790;2023-11-21T09:01:41;94283.28;;;6.18;100.00
68889;BME280;55930;47.412;8.790;2023-11-21T09:05:05;94275.25;;;6.12;100.00
68889;BME280;55930;47.412;8.790;2023-11-21T09:08:25;94283.41;;;6.05;100.00
68889;BME280;55930;47.412;8.790;2023-11-21T09:11:48;94282.97;;;6.16;100.00
68889;BME280;55930;47.412;8.790;2023-11-21T09:15:09;94290.84;;;6.07;100.00
68889;BME280;55930;47.412;8.790;2023-11-21T09:18:32;94295.81;;;5.96;100.00
68889;BME280;55930;47.412;8.790;2023-11-21T09:21:55;94293.78;;;6.09;100.00
68889;BME280;55930;47.412;8.790;2023-11-21T09:25:17;94298.19;;;6.03;100.00
68889;BME280;55930;47.412;8.790;2023-11-21T09:28:38;94304.03;;;5.98;100.00
68889;BME280;55930;47.412;8.790;2023-11-21T09:32:01;94305.81;;;6.19;100.00
68889;BME280;55930;47.412;8.790;2023-11-21T09:35:23;94307.56;;;6.13;100.00
68889;BME280;55930;47.412;8.790;2023-11-21T09:38:44;94297.88;;;6.01;100.00
68889;BME280;55930;47.412;8.790;2023-11-21T09:42:11;94301.34;;;5.89;100.00
68889;BME280;55930;47.412;8.790;2023-11-21T09:45:35;94302.91;;;6.26;100.00
68889;BME280;55930;47.412;8.790;2023-11-21T09:48:57;94309.94;;;6.29;100.00
68889;BME280;55930;47.412;8.790;2023-11-21T09:52:27;94310.81;;;6.26;100.00
68889;BME280;55930;47.412;8.790;2023-11-21T09:55:53;94314.75;;;6.22;100.00
68889;BME280;55930;47.412;8.790;2023-11-21T09:59:15;94307.47;;;6.35;100.00
68889;BME280;55930;47.412;8.790;2023-11-21T10:02:38;94306.78;;;6.62;100.00
68889;BME280;55930;47.412;8.790;2023-11-21T10:06:04;94304.53;;;6.42;100.00
68889;BME280;55930;47.412;8.790;2023-11-21T10:09:25;94307.03;;;6.54;100.00
68889;BME280;55930;47.412;8.790;2023-11-21T10:12:51;94303.56;;;6.67;100.00
68889;BME280;55930;47.412;8.790;2023-11-21T10:16:19;94299.47;;;6.84;100.00
68889;BME280;55930;47.412;8.790;2023-11-21T10:19:42;94292.28;;;6.84;100.00
68889;BME280;55930;47.412;8.790;2023-11-21T10:23:04;94290.66;;;6.87;100.00
68889;BME280;55930;47.412;8.790;2023-11-21T10:26:29;94286.84;;;6.88;100.00
68889;BME280;55930;47.412;8.790;2023-11-21T10:29:51;94284.81;;;6.74;100.00
68889;BME280;55930;47.412;8.790;2023-11-21T10:33:12;94289.03;;;7.08;100.00
68889;BME280;55930;47.412;8.790;2023-11-21T10:36:32;94276.31;;;6.88;100.00
68889;BME280;55930;47.412;8.790;2023-11-21T10:40:02;94281.13;;;6.80;100.00
68889;BME280;55930;47.412;8.790;2023-11-21T10:43:25;94284.50;;;6.99;100.00
68889;BME280;55930;47.412;8.790;2023-11-21T10:46:50;94280.09;;;6.87;100.00
68889;BME280;55930;47.412;8.790;2023-11-21T10:50:11;94284.94;;;6.98;100.00
68889;BME280;55930;47.412;8.790;2023-11-21T10:53:31;94281.28;;;6.95;100.00
68889;BME280;55930;47.412;8.790;2023-11-21T10:57:01;94275.16;;;6.62;100.00
68889;BME280;55930;47.412;8.790;2023-11-21T11:00:24;94287.00;;;6.84;100.00
68889;BME280;55930;47.412;8.790;2023-11-21T11:03:46;94291.84;;;6.68;100.00
68889;BME280;55930;47.412;8.790;2023-11-21T11:07:07;94288.59;;;6.73;100.00
68889;BME280;55930;47.412;8.790;2023-11-21T11:10:30;94286.44;;;6.62;100.00
68889;BME280;55930;47.412;8.790;2023-11-21T11:13:51;94286.84;;;6.88;100.00
68889;BME280;55930;47.412;8.790;2023-11-21T11:17:13;94289.03;;;6.99;100.00
68889;BME280;55930;47.412;8.790;2023-11-21T11:20:36;94294.31;;;7.17;100.00
68889;BME280;55930;47.412;8.790;2023-11-21T11:31:45;94283.88;;;7.22;100.00
68889;BME280;55930;47.412;8.790;2023-11-21T11:35:04;94271.22;;;7.45;100.00
68889;BME280;55930;47.412;8.790;2023-11-21T11:38:31;94273.59;;;7.34;100.00
68889;BME280;55930;47.412;8.790;2023-11-21T11:41:53;94270.47;;;7.53;100.00
68889;BME280;55930;47.412;8.790;2023-11-21T11:45:19;94267.00;;;7.38;100.00
68889;BME280;55930;47.412;8.790;2023-11-21T11:48:40;94265.69;;;7.34;100.00
68889;BME280;55930;47.412;8.790;2023-11-21T11:56:27;94262.09;;;7.55;100.00
68889;BME280;55930;47.412;8.790;2023-11-21T12:00:11;94264.94;;;8.08;100.00
68889;BME280;55930;47.412;8.790;2023-11-21T12:03:35;94250.41;;;7.47;100.00
68889;BME280;55930;47.412;8.790;2023-11-21T12:06:59;94258.19;;;7.41;100.00
68889;BME280;55930;47.412;8.790;2023-11-21T12:10:25;94266.75;;;7.60;100.00
68889;BME280;55930;47.412;8.790;2023-11-21T12:13:45;94264.69;;;7.73;100.00
68889;BME280;55930;47.412;8.790;2023-11-21T12:17:08;94256.63;;;7.25;100.00
68889;BME280;55930;47.412;8.790;2023-11-21T12:20:30;94272.88;;;7.75;100.00
68889;BME280;55930;47.412;8.790;2023-11-21T12:23:51;94270.53;;;7.68;100.00
68889;BME280;55930;47.412;8.790;2023-11-21T12:27:11;94271.47;;;7.65;100.00
68889;BME280;55930;47.412;8.790;2023-11-21T12:30:36;94274.59;;;7.45;100.00
68889;BME280;55930;47.412;8.790;2023-11-21T12:33:58;94272.84;;;7.42;100.00
68889;BME280;55930;47.412;8.790;2023-11-21T12:37:20;94276.31;;;7.57;100.00
68889;BME280;55930;47.412;8.790;2023-11-21T12:40:42;94273.53;;;7.94;100.00
68889;BME280;55930;47.412;8.790;2023-11-21T12:44:02;94272.09;;;7.84;100.00
68889;BME280;55930;47.412;8.790;2023-11-21T12:47:25;94274.69;;;8.26;100.00
68889;BME280;55930;47.412;8.790;2023-11-21T12:50:45;94253.25;;;8.24;100.00
68889;BME280;55930;47.412;8.790;2023-11-21T12:54:09;94261.50;;;8.17;100.00
68889;BME280;55930;47.412;8.790;2023-11-21T12:57:33;94268.13;;;7.88;100.00
68889;BME280;55930;47.412;8.790;2023-11-21T13:00:57;94260.13;;;7.74;100.00
68889;BME280;55930;47.412;8.790;2023-11-21T13:04:30;94265.00;;;7.66;100.00
68889;BME280;55930;47.412;8.790;2023-11-21T13:07:51;94278.59;;;7.32;100.00
68889;BME280;55930;47.412;8.790;2023-11-21T13:11:14;94283.56;;;7.29;100.00
68889;BME280;55930;47.412;8.790;2023-11-21T13:14:34;94290.03;;;7.28;100.00
68889;BME280;55930;47.412;8.790;2023-11-21T13:17:55;94290.19;;;7.25;100.00
68889;BME280;55930;47.412;8.790;2023-11-21T13:21:17;94296.63;;;7.24;100.00
68889;BME280;55930;47.412;8.790;2023-11-21T13:24:38;94300.88;;;7.21;100.00
68889;BME280;55930;47.412;8.790;2023-11-21T13:28:00;94304.56;;;7.15;100.00
68889;BME280;55930;47.412;8.790;2023-11-21T13:31:21;94300.00;;;7.15;100.00
68889;BME280;55930;47.412;8.790;2023-11-21T13:34:49;94301.47;;;7.16;100.00
68889;BME280;55930;47.412;8.790;2023-11-21T13:38:17;94289.31;;;7.19;100.00
68889;BME280;55930;47.412;8.790;2023-11-21T13:41:38;94283.16;;;7.13;100.00
68889;BME280;55930;47.412;8.790;2023-11-21T13:44:58;94290.91;;;7.25;100.00
68889;BME280;55930;47.412;8.790;2023-11-21T13:48:18;94290.78;;;7.20;100.00
68889;BME280;55930;47.412;8.790;2023-11-21T13:51:42;94293.56;;;7.25;100.00
68889;BME280;55930;47.412;8.790;2023-11-21T13:55:06;94305.41;;;7.30;100.00
68889;BME280;55930;47.412;8.790;2023-11-21T13:58:37;94300.00;;;7.24;100.00
68889;BME280;55930;47.412;8.790;2023-11-21T14:02:11;94305.72;;;7.32;100.00
68889;BME280;55930;47.412;8.790;2023-11-21T14:05:38;94309.28;;;7.02;100.00
68889;BME280;55930;47.412;8.790;2023-11-21T14:09:03;94310.41;;;7.19;100.00
68889;BME280;55930;47.412;8.790;2023-11-21T14:12:28;94308.66;;;7.25;100.00
68889;BME280;55930;47.412;8.790;2023-11-21T14:15:49;94315.19;;;7.48;100.00
68889;BME280;55930;47.412;8.790;2023-11-21T14:19:18;94318.56;;;7.57;100.00
68889;BME280;55930;47.412;8.790;2023-11-21T14:22:38;94317.53;;;7.46;100.00
68889;BME280;55930;47.412;8.790;2023-11-21T14:25:59;94316.28;;;7.05;100.00
68889;BME280;55930;47.412;8.790;2023-11-21T14:29:21;94327.44;;;7.18;100.00
68889;BME280;55930;47.412;8.790;2023-11-21T14:32:43;94331.50;;;7.19;100.00
68889;BME280;55930;47.412;8.790;2023-11-21T14:36:04;94337.63;;;7.43;100.00
68889;BME280;55930;47.412;8.790;2023-11-21T14:39:24;94340.03;;;7.14;100.00
68889;BME280;55930;47.412;8.790;2023-11-21T14:42:47;94343.81;;;7.13;100.00
68889;BME280;55930;47.412;8.790;2023-11-21T14:46:08;94346.63;;;7.00;100.00
68889;BME280;55930;47.412;8.790;2023-11-21T14:49:30;94344.72;;;6.91;100.00
68889;BME280;55930;47.412;8.790;2023-11-21T14:53:00;94350.72;;;6.83;100.00
68889;BME280;55930;47.412;8.790;2023-11-21T14:56:24;94352.03;;;6.78;100.00
68889;BME280;55930;47.412;8.790;2023-11-21T14:59:51;94356.28;;;6.76;100.00
68889;BME280;55930;47.412;8.790;2023-11-21T15:03:18;94364.19;;;6.76;100.00
68889;BME280;55930;47.412;8.790;2023-11-21T15:06:51;94363.59;;;6.72;100.00
68889;BME280;55930;47.412;8.790;2023-11-21T15:10:13;94366.50;;;6.65;100.00
68889;BME280;55930;47.412;8.790;2023-11-21T15:13:37;94378.66;;;6.62;100.00
68889;BME280;55930;47.412;8.790;2023-11-21T15:16:58;94373.97;;;6.57;100.00
68889;BME280;55930;47.412;8.790;2023-11-21T15:20:22;94389.63;;;6.51;100.00
68889;BME280;55930;47.412;8.790;2023-11-21T15:23:43;94385.22;;;6.58;100.00
68889;BME280;55930;47.412;8.790;2023-11-21T15:27:04;94395.94;;;6.63;100.00
68889;BME280;55930;47.412;8.790;2023-11-21T15:30:25;94395.94;;;6.54;100.00
68889;BME280;55930;47.412;8.790;2023-11-21T15:33:45;94401.00;;;6.39;100.00
68889;BME280;55930;47.412;8.790;2023-11-21T15:37:07;94407.00;;;6.40;100.00
68889;BME280;55930;47.412;8.790;2023-11-21T15:40:31;94403.03;;;6.35;100.00
68889;BME280;55930;47.412;8.790;2023-11-21T15:43:52;94401.84;;;6.27;100.00
68889;BME280;55930;47.412;8.790;2023-11-21T15:47:12;94415.75;;;6.28;100.00
68889;BME280;55930;47.412;8.790;2023-11-21T15:50:32;94410.28;;;6.13;100.00
68889;BME280;55930;47.412;8.790;2023-11-21T15:53:54;94413.50;;;6.17;100.00
68889;BME280;55930;47.412;8.790;2023-11-21T15:57:14;94409.13;;;6.14;100.00
68889;BME280;55930;47.412;8.790;2023-11-21T16:00:35;94415.91;;;6.02;100.00
68889;BME280;55930;47.412;8.790;2023-11-21T16:03:56;94422.78;;;6.00;100.00
68889;BME280;55930;47.412;8.790;2023-11-21T16:07:17;94422.03;;;5.99;100.00
68889;BME280;55930;47.412;8.790;2023-11-21T16:10:38;94431.13;;;5.98;100.00
68889;BME280;55930;47.412;8.790;2023-11-21T16:13:59;94430.63;;;5.91;100.00
68889;BME280;55930;47.412;8.790;2023-11-21T16:17:22;94423.50;;;5.78;100.00
68889;BME280;55930;47.412;8.790;2023-11-21T16:20:42;94433.78;;;5.86;100.00
68889;BME280;55930;47.412;8.790;2023-11-21T16:24:05;94438.53;;;5.91;100.00
68889;BME280;55930;47.412;8.790;2023-11-21T16:27:26;94443.00;;;5.81;100.00
68889;BME280;55930;47.412;8.790;2023-11-21T16:30:47;94452.47;;;5.78;100.00
68889;BME280;55930;47.412;8.790;2023-11-21T16:34:17;94451.06;;;5.87;100.00
68889;BME280;55930;47.412;8.790;2023-11-21T16:37:37;94459.28;;;5.89;100.00
68889;BME280;55930;47.412;8.790;2023-11-21T16:40:58;94457.97;;;5.71;100.00
68889;BME280;55930;47.412;8.790;2023-11-21T16:44:20;94458.03;;;5.81;100.00
68889;BME280;55930;47.412;8.790;2023-11-21T16:47:46;94465.75;;;5.75;100.00
68889;BME280;55930;47.412;8.790;2023-11-21T16:51:06;94473.03;;;5.71;100.00
68889;BME280;55930;47.412;8.790;2023-11-21T16:54:27;94478.72;;;5.69;100.00
68889;BME280;55930;47.412;8.790;2023-11-21T16:57:47;94477.81;;;5.63;100.00
68889;BME280;55930;47.412;8.790;2023-11-21T17:01:07;94483.63;;;5.58;100.00
68889;BME280;55930;47.412;8.790;2023-11-21T17:04:28;94484.78;;;5.57;100.00
68889;BME280;55930;47.412;8.790;2023-11-21T17:07:48;94493.03;;;5.68;100.00
68889;BME280;55930;47.412;8.790;2023-11-21T17:11:10;94495.56;;;5.72;100.00
68889;BME280;55930;47.412;8.790;2023-11-21T17:14:36;94502.91;;;5.77;100.00
68889;BME280;55930;47.412;8.790;2023-11-21T17:17:59;94503.94;;;5.80;100.00
68889;BME280;55930;47.412;8.790;2023-11-21T17:21:21;94503.56;;;5.68;100.00
68889;BME280;55930;47.412;8.790;2023-11-21T17:24:41;94513.63;;;5.83;100.00
68889;BME280;55930;47.412;8.790;2023-11-21T17:28:03;94503.53;;;5.81;100.00
68889;BME280;55930;47.412;8.790;2023-11-21T17:31:24;94513.75;;;5.79;100.00
68889;BME280;55930;47.412;8.790;2023-11-21T17:34:44;94520.59;;;5.76;100.00
68889;BME280;55930;47.412;8.790;2023-11-21T17:38:08;94517.84;;;5.80;100.00
68889;BME280;55930;47.412;8.790;2023-11-21T17:41:28;94521.75;;;5.75;100.00
68889;BME280;55930;47.412;8.790;2023-11-21T17:44:51;94529.34;;;5.73;100.00
68889;BME280;55930;47.412;8.790;2023-11-21T17:48:11;94535.03;;;5.72;100.00
68889;BME280;55930;47.412;8.790;2023-11-21T17:51:37;94523.78;;;5.71;100.00
68889;BME280;55930;47.412;8.790;2023-11-21T17:54:58;94522.19;;;5.74;100.00
68889;BME280;55930;47.412;8.790;2023-11-21T17:58:19;94518.75;;;5.64;100.00
68889;BME280;55930;47.412;8.790;2023-11-21T18:01:39;94527.00;;;5.75;100.00
68889;BME280;55930;47.412;8.790;2023-11-21T18:05:02;94516.53;;;5.63;100.00
68889;BME280;55930;47.412;8.790;2023-11-21T18:08:25;94530.75;;;5.65;100.00
68889;BME280;55930;47.412;8.790;2023-11-21T18:11:45;94526.56;;;5.55;100.00